sensor_id;sensor_type;location;lat;lon;timestamp;temperature;humidity
3860;DHT22;1945;52.036;8.614;2022-08-18T00:02:28;20.90;99.90
3860;DHT22;1945;52.036;8.614;2022-08-18T00:04:56;20.80;99.90
3860;DHT22;1945;52.036;8.614;2022-08-18T00:07:26;20.80;99.90
3860;DHT22;1945;52.036;8.614;2022-08-18T00:09:54;20.80;99.90
3860;DHT22;1945;52.036;8.614;2022-08-18T00:12:26;20.70;99.90
3860;DHT22;1945;52.036;8.614;2022-08-18T00:14:55;20.70;99.90
3860;DHT22;1945;52.036;8.614;2022-08-18T00:17:22;20.70;99.90
3860;DHT22;1945;52.036;8.614;2022-08-18T00:19:51;20.70;99.90
3860;DHT22;1945;52.036;8.614;2022-08-18T00:22:21;20.60;99.90
3860;DHT22;1945;52.036;8.614;2022-08-18T00:24:49;20.60;99.90
3860;DHT22;1945;52.036;8.614;2022-08-18T00:27:18;20.60;99.90
3860;DHT22;1945;52.036;8.614;2022-08-18T00:29:46;20.60;99.90
3860;DHT22;1945;52.036;8.614;2022-08-18T00:32:15;20.50;99.90
3860;DHT22;1945;52.036;8.614;2022-08-18T00:34:45;20.40;99.90
3860;DHT22;1945;52.036;8.614;2022-08-18T00:37:14;20.50;99.90
3860;DHT22;1945;52.036;8.614;2022-08-18T00:39:41;20.40;99.90
3860;DHT22;1945;52.036;8.614;2022-08-18T00:42:13;20.40;99.90
3860;DHT22;1945;52.036;8.614;2022-08-18T00:44:40;20.40;99.90
3860;DHT22;1945;52.036;8.614;2022-08-18T00:47:08;20.30;99.90
3860;DHT22;1945;52.036;8.614;2022-08-18T00:49:36;20.30;99.90
3860;DHT22;1945;52.036;8.614;2022-08-18T00:52:05;20.30;99.90
3860;DHT22;1945;52.036;8.614;2022-08-18T00:54:36;20.20;99.90
3860;DHT22;1945;52.036;8.614;2022-08-18T00:57:06;20.20;99.90
3860;DHT22;1945;52.036;8.614;2022-08-18T00:59:37;20.10;99.90
3860;DHT22;1945;52.036;8.614;2022-08-18T01:02:17;20.10;99.90
3860;DHT22;1945;52.036;8.614;2022-08-18T01:04:50;20.10;99.90
3860;DHT22;1945;52.036;8.614;2022-08-18T01:07:25;20.10;99.90
3860;DHT22;1945;52.036;8.614;2022-08-18T01:09:56;20.10;99.90
3860;DHT22;1945;52.036;8.614;2022-08-18T01:12:25;20.10;99.90
3860;DHT22;1945;52.036;8.614;2022-08-18T01:14:53;20.40;99.90
3860;DHT22;1945;52.036;8.614;2022-08-18T01:17:22;20.00;99.90
3860;DHT22;1945;52.036;8.614;2022-08-18T01:20:10;20.00;99.90
3860;DHT22;1945;52.036;8.614;2022-08-18T01:23:00;20.00;99.90
3860;DHT22;1945;52.036;8.614;2022-08-18T01:25:41;19.90;99.90
3860;DHT22;1945;52.036;8.614;2022-08-18T01:28:32;19.80;99.90
3860;DHT22;1945;52.036;8.614;2022-08-18T01:31:01;19.80;99.90
3860;DHT22;1945;52.036;8.614;2022-08-18T01:33:31;19.80;99.90
3860;DHT22;1945;52.036;8.614;2022-08-18T01:36:09;19.80;99.90
3860;DHT22;1945;52.036;8.614;2022-08-18T01:38:43;19.80;99.90
3860;DHT22;1945;52.036;8.614;2022-08-18T01:41:10;19.80;99.90
3860;DHT22;1945;52.036;8.614;2022-08-18T01:43:38;19.70;99.90
3860;DHT22;1945;52.036;8.614;2022-08-18T01:46:06;19.60;99.90
3860;DHT22;1945;52.036;8.614;2022-08-18T01:48:35;19.50;99.90
3860;DHT22;1945;52.036;8.614;2022-08-18T01:51:04;19.50;99.90
3860;DHT22;1945;52.036;8.614;2022-08-18T01:53:31;19.50;99.90
3860;DHT22;1945;52.036;8.614;2022-08-18T01:56:00;19.50;99.90
3860;DHT22;1945;52.036;8.614;2022-08-18T01:58:30;19.50;99.90
3860;DHT22;1945;52.036;8.614;2022-08-18T02:01:03;19.50;99.90
3860;DHT22;1945;52.036;8.614;2022-08-18T02:03:36;19.50;99.90
3860;DHT22;1945;52.036;8.614;2022-08-18T02:06:07;19.40;99.90
3860;DHT22;1945;52.036;8.614;2022-08-18T02:08:40;19.40;99.90
3860;DHT22;1945;52.036;8.614;2022-08-18T02:11:10;19.40;99.90
3860;DHT22;1945;52.036;8.614;2022-08-18T02:13:37;19.40;99.90
3860;DHT22;1945;52.036;8.614;2022-08-18T02:16:05;19.40;99.90
3860;DHT22;1945;52.036;8.614;2022-08-18T02:18:36;19.40;99.90
3860;DHT22;1945;52.036;8.614;2022-08-18T02:21:07;19.40;99.90
3860;DHT22;1945;52.036;8.614;2022-08-18T02:23:35;19.40;99.90
3860;DHT22;1945;52.036;8.614;2022-08-18T02:26:04;19.40;99.90
3860;DHT22;1945;52.036;8.614;2022-08-18T02:28:33;19.30;99.90
3860;DHT22;1945;52.036;8.614;2022-08-18T02:31:06;19.20;99.90
3860;DHT22;1945;52.036;8.614;2022-08-18T02:33:34;19.40;99.90
3860;DHT22;1945;52.036;8.614;2022-08-18T02:36:07;19.20;99.90
3860;DHT22;1945;52.036;8.614;2022-08-18T02:38:40;19.20;99.90
3860;DHT22;1945;52.036;8.614;2022-08-18T02:41:10;19.20;99.90
3860;DHT22;1945;52.036;8.614;2022-08-18T02:43:39;19.10;99.90
3860;DHT22;1945;52.036;8.614;2022-08-18T02:46:07;19.00;99.90
3860;DHT22;1945;52.036;8.614;2022-08-18T02:48:35;19.00;99.90
3860;DHT22;1945;52.036;8.614;2022-08-18T02:51:03;19.00;99.90
3860;DHT22;1945;52.036;8.614;2022-08-18T02:53:31;19.00;99.90
3860;DHT22;1945;52.036;8.614;2022-08-18T02:56:05;19.00;99.90
3860;DHT22;1945;52.036;8.614;2022-08-18T02:58:41;19.00;99.90
3860;DHT22;1945;52.036;8.614;2022-08-18T03:01:07;18.90;99.90
3860;DHT22;1945;52.036;8.614;2022-08-18T03:03:35;18.90;99.90
3860;DHT22;1945;52.036;8.614;2022-08-18T03:06:02;18.90;99.90
3860;DHT22;1945;52.036;8.614;2022-08-18T03:08:28;18.90;99.90
3860;DHT22;1945;52.036;8.614;2022-08-18T03:10:55;19.00;99.90
3860;DHT22;1945;52.036;8.614;2022-08-18T03:13:22;19.00;99.90
3860;DHT22;1945;52.036;8.614;2022-08-18T03:15:50;19.10;99.90
3860;DHT22;1945;52.036;8.614;2022-08-18T03:18:17;19.20;99.90
3860;DHT22;1945;52.036;8.614;2022-08-18T03:20:44;19.20;99.90
3860;DHT22;1945;52.036;8.614;2022-08-18T03:23:11;19.30;99.90
3860;DHT22;1945;52.036;8.614;2022-08-18T03:25:42;19.30;99.90
3860;DHT22;1945;52.036;8.614;2022-08-18T03:28:09;19.30;99.90
3860;DHT22;1945;52.036;8.614;2022-08-18T03:30:36;19.30;99.90
3860;DHT22;1945;52.036;8.614;2022-08-18T03:33:31;19.30;99.90
3860;DHT22;1945;52.036;8.614;2022-08-18T03:36:03;19.20;99.90
3860;DHT22;1945;52.036;8.614;2022-08-18T03:38:31;19.20;99.90
3860;DHT22;1945;52.036;8.614;2022-08-18T03:40:57;19.20;99.90
3860;DHT22;1945;52.036;8.614;2022-08-18T03:43:24;19.20;99.90
3860;DHT22;1945;52.036;8.614;2022-08-18T03:45:51;19.10;99.90
3860;DHT22;1945;52.036;8.614;2022-08-18T03:48:19;19.10;99.90
3860;DHT22;1945;52.036;8.614;2022-08-18T03:50:47;19.10;99.90
3860;DHT22;1945;52.036;8.614;2022-08-18T03:53:14;19.10;99.90
3860;DHT22;1945;52.036;8.614;2022-08-18T03:55:40;19.00;99.90
3860;DHT22;1945;52.036;8.614;2022-08-18T03:58:07;19.00;99.90
3860;DHT22;1945;52.036;8.614;2022-08-18T04:00:39;19.00;99.90
3860;DHT22;1945;52.036;8.614;2022-08-18T04:03:06;19.00;99.90
3860;DHT22;1945;52.036;8.614;2022-08-18T04:05:38;19.00;99.90
3860;DHT22;1945;52.036;8.614;2022-08-18T04:08:06;19.00;99.90
3860;DHT22;1945;52.036;8.614;2022-08-18T04:10:33;19.00;99.90
3860;DHT22;1945;52.036;8.614;2022-08-18T04:13:00;19.00;99.90
3860;DHT22;1945;52.036;8.614;2022-08-18T04:15:29;19.00;99.90
3860;DHT22;1945;52.036;8.614;2022-08-18T04:17:58;19.10;99.90
3860;DHT22;1945;52.036;8.614;2022-08-18T04:20:24;19.10;99.90
3860;DHT22;1945;52.036;8.614;2022-08-18T04:22:51;19.30;99.90
3860;DHT22;1945;52.036;8.614;2022-08-18T04:25:20;19.10;99.90
3860;DHT22;1945;52.036;8.614;2022-08-18T04:27:47;19.10;99.90
3860;DHT22;1945;52.036;8.614;2022-08-18T04:30:13;19.10;99.90
3860;DHT22;1945;52.036;8.614;2022-08-18T04:32:40;19.10;99.90
3860;DHT22;1945;52.036;8.614;2022-08-18T04:35:08;19.10;99.90
3860;DHT22;1945;52.036;8.614;2022-08-18T04:37:36;19.10;99.90
3860;DHT22;1945;52.036;8.614;2022-08-18T04:40:03;19.20;99.90
3860;DHT22;1945;52.036;8.614;2022-08-18T04:42:32;19.10;99.90
3860;DHT22;1945;52.036;8.614;2022-08-18T04:44:58;19.20;99.90
3860;DHT22;1945;52.036;8.614;2022-08-18T04:47:25;19.20;99.90
3860;DHT22;1945;52.036;8.614;2022-08-18T04:49:52;19.20;99.90
3860;DHT22;1945;52.036;8.614;2022-08-18T04:52:19;19.20;99.90
3860;DHT22;1945;52.036;8.614;2022-08-18T04:55:11;19.20;99.90
3860;DHT22;1945;52.036;8.614;2022-08-18T04:57:39;19.20;99.90
3860;DHT22;1945;52.036;8.614;2022-08-18T05:00:08;19.20;99.90
3860;DHT22;1945;52.036;8.614;2022-08-18T05:02:36;19.20;99.90
3860;DHT22;1945;52.036;8.614;2022-08-18T05:05:03;19.30;99.90
3860;DHT22;1945;52.036;8.614;2022-08-18T05:07:31;19.30;99.90
3860;DHT22;1945;52.036;8.614;2022-08-18T05:09:58;19.20;99.90
3860;DHT22;1945;52.036;8.614;2022-08-18T05:12:24;19.30;99.90
3860;DHT22;1945;52.036;8.614;2022-08-18T05:14:53;19.30;99.90
3860;DHT22;1945;52.036;8.614;2022-08-18T05:17:21;19.40;99.90
3860;DHT22;1945;52.036;8.614;2022-08-18T05:19:53;19.20;99.90
3860;DHT22;1945;52.036;8.614;2022-08-18T05:22:20;19.20;99.90
3860;DHT22;1945;52.036;8.614;2022-08-18T05:24:50;19.20;99.90
3860;DHT22;1945;52.036;8.614;2022-08-18T05:27:17;19.20;99.90
3860;DHT22;1945;52.036;8.614;2022-08-18T05:29:44;19.30;99.90
3860;DHT22;1945;52.036;8.614;2022-08-18T05:32:12;19.40;99.90
3860;DHT22;1945;52.036;8.614;2022-08-18T05:34:39;19.50;99.90
3860;DHT22;1945;52.036;8.614;2022-08-18T05:37:18;19.60;99.90
3860;DHT22;1945;52.036;8.614;2022-08-18T05:39:54;19.70;99.90
3860;DHT22;1945;52.036;8.614;2022-08-18T05:42:22;20.00;99.90
3860;DHT22;1945;52.036;8.614;2022-08-18T05:44:51;20.00;99.90
3860;DHT22;1945;52.036;8.614;2022-08-18T05:47:23;20.10;99.90
3860;DHT22;1945;52.036;8.614;2022-08-18T05:49:51;20.60;99.90
3860;DHT22;1945;52.036;8.614;2022-08-18T05:52:21;20.80;99.90
3860;DHT22;1945;52.036;8.614;2022-08-18T05:54:54;21.00;99.90
3860;DHT22;1945;52.036;8.614;2022-08-18T05:57:43;20.60;99.90
3860;DHT22;1945;52.036;8.614;2022-08-18T06:00:11;20.40;99.90
3860;DHT22;1945;52.036;8.614;2022-08-18T06:02:44;20.30;99.90
3860;DHT22;1945;52.036;8.614;2022-08-18T06:05:15;20.40;99.90
3860;DHT22;1945;52.036;8.614;2022-08-18T06:07:50;20.20;99.90
3860;DHT22;1945;52.036;8.614;2022-08-18T06:10:18;20.40;99.90
3860;DHT22;1945;52.036;8.614;2022-08-18T06:12:47;20.40;99.90
3860;DHT22;1945;52.036;8.614;2022-08-18T06:15:19;20.60;99.90
3860;DHT22;1945;52.036;8.614;2022-08-18T06:18:19;20.70;28.90
3860;DHT22;1945;52.036;8.614;2022-08-18T06:21:04;20.90;68.70
3860;DHT22;1945;52.036;8.614;2022-08-18T06:23:39;21.00;1.00
3860;DHT22;1945;52.036;8.614;2022-08-18T06:26:12;21.10;1.00
3860;DHT22;1945;52.036;8.614;2022-08-18T06:28:53;21.20;1.00
3860;DHT22;1945;52.036;8.614;2022-08-18T06:31:26;21.20;1.00
3860;DHT22;1945;52.036;8.614;2022-08-18T06:34:05;21.80;1.00
3860;DHT22;1945;52.036;8.614;2022-08-18T06:36:39;21.60;1.00
3860;DHT22;1945;52.036;8.614;2022-08-18T06:39:17;22.10;1.00
3860;DHT22;1945;52.036;8.614;2022-08-18T06:41:47;22.40;1.00
3860;DHT22;1945;52.036;8.614;2022-08-18T06:44:20;22.70;99.90
3860;DHT22;1945;52.036;8.614;2022-08-18T06:46:54;23.10;99.90
3860;DHT22;1945;52.036;8.614;2022-08-18T06:49:34;23.40;99.90
3860;DHT22;1945;52.036;8.614;2022-08-18T06:52:25;23.40;1.00
3860;DHT22;1945;52.036;8.614;2022-08-18T06:54:55;23.80;1.00
3860;DHT22;1945;52.036;8.614;2022-08-18T06:57:26;23.80;1.00
3860;DHT22;1945;52.036;8.614;2022-08-18T06:59:56;24.00;1.00
3860;DHT22;1945;52.036;8.614;2022-08-18T07:02:25;23.60;1.00
3860;DHT22;1945;52.036;8.614;2022-08-18T07:05:02;23.20;1.00
3860;DHT22;1945;52.036;8.614;2022-08-18T07:07:33;22.70;1.00
3860;DHT22;1945;52.036;8.614;2022-08-18T07:10:01;23.00;59.70
3860;DHT22;1945;52.036;8.614;2022-08-18T07:12:28;23.10;1.00
3860;DHT22;1945;52.036;8.614;2022-08-18T07:14:58;23.50;1.00
3860;DHT22;1945;52.036;8.614;2022-08-18T07:17:27;24.30;1.00
3860;DHT22;1945;52.036;8.614;2022-08-18T07:19:57;24.40;1.00
3860;DHT22;1945;52.036;8.614;2022-08-18T07:22:27;24.10;1.00
3860;DHT22;1945;52.036;8.614;2022-08-18T07:24:56;24.60;99.90
3860;DHT22;1945;52.036;8.614;2022-08-18T07:27:41;24.80;99.90
3860;DHT22;1945;52.036;8.614;2022-08-18T07:30:10;25.60;47.60
3860;DHT22;1945;52.036;8.614;2022-08-18T07:32:42;24.80;99.90
3860;DHT22;1945;52.036;8.614;2022-08-18T07:35:13;24.70;99.90
3860;DHT22;1945;52.036;8.614;2022-08-18T07:37:46;24.30;1.00
3860;DHT22;1945;52.036;8.614;2022-08-18T07:40:23;24.30;1.00
3860;DHT22;1945;52.036;8.614;2022-08-18T07:42:55;24.80;99.90
3860;DHT22;1945;52.036;8.614;2022-08-18T07:45:28;24.90;99.90
3860;DHT22;1945;52.036;8.614;2022-08-18T07:47:59;24.90;99.90
3860;DHT22;1945;52.036;8.614;2022-08-18T07:50:32;25.00;99.90
3860;DHT22;1945;52.036;8.614;2022-08-18T07:53:08;25.40;99.90
3860;DHT22;1945;52.036;8.614;2022-08-18T07:55:36;25.60;99.90
3860;DHT22;1945;52.036;8.614;2022-08-18T07:58:14;25.50;1.00
3860;DHT22;1945;52.036;8.614;2022-08-18T08:00:48;25.10;99.90
3860;DHT22;1945;52.036;8.614;2022-08-18T08:03:28;24.90;99.90
3860;DHT22;1945;52.036;8.614;2022-08-18T08:06:01;24.80;99.90
3860;DHT22;1945;52.036;8.614;2022-08-18T08:08:42;24.80;99.90
3860;DHT22;1945;52.036;8.614;2022-08-18T08:11:19;24.30;1.00
3860;DHT22;1945;52.036;8.614;2022-08-18T08:14:08;24.40;1.00
3860;DHT22;1945;52.036;8.614;2022-08-18T08:16:42;24.20;1.00
3860;DHT22;1945;52.036;8.614;2022-08-18T08:19:27;24.10;1.00
3860;DHT22;1945;52.036;8.614;2022-08-18T08:22:03;24.30;1.00
3860;DHT22;1945;52.036;8.614;2022-08-18T08:24:37;24.20;1.00
3860;DHT22;1945;52.036;8.614;2022-08-18T08:27:10;24.40;1.00
3860;DHT22;1945;52.036;8.614;2022-08-18T08:29:47;24.70;99.90
3860;DHT22;1945;52.036;8.614;2022-08-18T08:32:22;24.80;99.90
3860;DHT22;1945;52.036;8.614;2022-08-18T08:34:57;25.20;99.90
3860;DHT22;1945;52.036;8.614;2022-08-18T08:37:32;25.20;1.00
3860;DHT22;1945;52.036;8.614;2022-08-18T08:40:06;25.70;1.00
3860;DHT22;1945;52.036;8.614;2022-08-18T08:42:40;25.60;1.00
3860;DHT22;1945;52.036;8.614;2022-08-18T08:45:10;25.40;12.50
3860;DHT22;1945;52.036;8.614;2022-08-18T08:47:43;25.10;26.60
3860;DHT22;1945;52.036;8.614;2022-08-18T08:50:16;25.00;63.40
3860;DHT22;1945;52.036;8.614;2022-08-18T08:52:46;24.90;99.90
3860;DHT22;1945;52.036;8.614;2022-08-18T08:55:21;24.90;99.90
3860;DHT22;1945;52.036;8.614;2022-08-18T08:57:57;24.70;99.90
3860;DHT22;1945;52.036;8.614;2022-08-18T09:00:28;24.60;99.90
3860;DHT22;1945;52.036;8.614;2022-08-18T09:03:11;24.60;99.90
3860;DHT22;1945;52.036;8.614;2022-08-18T09:05:55;24.60;99.90
3860;DHT22;1945;52.036;8.614;2022-08-18T09:08:42;24.60;99.90
3860;DHT22;1945;52.036;8.614;2022-08-18T09:11:22;24.60;99.90
3860;DHT22;1945;52.036;8.614;2022-08-18T09:14:16;24.60;99.90
3860;DHT22;1945;52.036;8.614;2022-08-18T09:16:57;24.50;99.90
3860;DHT22;1945;52.036;8.614;2022-08-18T09:19:44;24.80;99.90
3860;DHT22;1945;52.036;8.614;2022-08-18T09:22:23;24.80;99.90
3860;DHT22;1945;52.036;8.614;2022-08-18T09:24:55;24.90;99.90
3860;DHT22;1945;52.036;8.614;2022-08-18T09:27:36;24.70;99.90
3860;DHT22;1945;52.036;8.614;2022-08-18T09:30:06;24.50;1.00
3860;DHT22;1945;52.036;8.614;2022-08-18T09:32:43;24.50;1.00
3860;DHT22;1945;52.036;8.614;2022-08-18T09:38:09;25.00;99.90
3860;DHT22;1945;52.036;8.614;2022-08-18T09:40:58;25.40;99.90
3860;DHT22;1945;52.036;8.614;2022-08-18T09:43:56;25.20;99.90
3860;DHT22;1945;52.036;8.614;2022-08-18T09:46:57;25.50;99.90
3860;DHT22;1945;52.036;8.614;2022-08-18T09:49:43;25.50;99.90
3860;DHT22;1945;52.036;8.614;2022-08-18T09:58:50;24.80;99.90
3860;DHT22;1945;52.036;8.614;2022-08-18T10:01:32;24.70;1.00
3860;DHT22;1945;52.036;8.614;2022-08-18T10:04:26;25.00;99.90
3860;DHT22;1945;52.036;8.614;2022-08-18T10:06:54;24.60;99.90
3860;DHT22;1945;52.036;8.614;2022-08-18T10:09:30;24.70;99.90
3860;DHT22;1945;52.036;8.614;2022-08-18T10:12:14;24.40;99.90
3860;DHT22;1945;52.036;8.614;2022-08-18T10:18:09;24.30;1.00
3860;DHT22;1945;52.036;8.614;2022-08-18T10:20:50;24.60;1.00
3860;DHT22;1945;52.036;8.614;2022-08-18T10:29:50;24.70;99.90
3860;DHT22;1945;52.036;8.614;2022-08-18T10:38:23;25.10;99.90
3860;DHT22;1945;52.036;8.614;2022-08-18T10:40:55;25.00;99.90
3860;DHT22;1945;52.036;8.614;2022-08-18T10:43:31;24.90;99.90
3860;DHT22;1945;52.036;8.614;2022-08-18T10:46:00;24.90;99.90
3860;DHT22;1945;52.036;8.614;2022-08-18T10:48:29;24.70;99.90
3860;DHT22;1945;52.036;8.614;2022-08-18T10:51:01;24.70;99.90
3860;DHT22;1945;52.036;8.614;2022-08-18T10:53:35;24.80;99.90
3860;DHT22;1945;52.036;8.614;2022-08-18T10:56:08;24.60;99.90
3860;DHT22;1945;52.036;8.614;2022-08-18T10:58:46;24.80;99.90
3860;DHT22;1945;52.036;8.614;2022-08-18T11:01:42;24.90;99.90
3860;DHT22;1945;52.036;8.614;2022-08-18T11:04:23;25.00;99.90
3860;DHT22;1945;52.036;8.614;2022-08-18T11:06:58;24.90;99.90
3860;DHT22;1945;52.036;8.614;2022-08-18T11:09:29;25.00;99.90
3860;DHT22;1945;52.036;8.614;2022-08-18T11:11:59;25.30;1.00
3860;DHT22;1945;52.036;8.614;2022-08-18T11:14:56;25.40;99.90
3860;DHT22;1945;52.036;8.614;2022-08-18T11:17:32;25.60;43.30
3860;DHT22;1945;52.036;8.614;2022-08-18T11:20:04;25.60;99.90
3860;DHT22;1945;52.036;8.614;2022-08-18T11:22:34;25.40;99.90
3860;DHT22;1945;52.036;8.614;2022-08-18T11:25:19;25.60;63.10
3860;DHT22;1945;52.036;8.614;2022-08-18T11:27:47;26.00;99.90
3860;DHT22;1945;52.036;8.614;2022-08-18T11:30:14;26.40;1.00
3860;DHT22;1945;52.036;8.614;2022-08-18T11:32:42;26.60;1.00
3860;DHT22;1945;52.036;8.614;2022-08-18T11:35:12;26.10;1.00
3860;DHT22;1945;52.036;8.614;2022-08-18T11:37:44;26.10;1.00
3860;DHT22;1945;52.036;8.614;2022-08-18T11:40:33;26.10;1.00
3860;DHT22;1945;52.036;8.614;2022-08-18T11:43:03;25.90;1.00
3860;DHT22;1945;52.036;8.614;2022-08-18T11:45:33;25.90;1.00
3860;DHT22;1945;52.036;8.614;2022-08-18T11:48:15;26.00;1.00
3860;DHT22;1945;52.036;8.614;2022-08-18T11:50:47;26.00;1.00
3860;DHT22;1945;52.036;8.614;2022-08-18T11:53:22;26.00;1.00
3860;DHT22;1945;52.036;8.614;2022-08-18T11:56:05;26.10;1.00
3860;DHT22;1945;52.036;8.614;2022-08-18T11:58:38;26.10;1.00
3860;DHT22;1945;52.036;8.614;2022-08-18T12:01:05;26.00;1.00
3860;DHT22;1945;52.036;8.614;2022-08-18T12:03:39;25.80;1.00
3860;DHT22;1945;52.036;8.614;2022-08-18T12:06:19;25.90;1.00
3860;DHT22;1945;52.036;8.614;2022-08-18T12:08:52;26.20;1.00
3860;DHT22;1945;52.036;8.614;2022-08-18T12:11:23;26.20;1.00
3860;DHT22;1945;52.036;8.614;2022-08-18T12:14:07;26.30;1.00
3860;DHT22;1945;52.036;8.614;2022-08-18T12:16:37;26.20;1.00
3860;DHT22;1945;52.036;8.614;2022-08-18T12:19:06;26.20;1.00
3860;DHT22;1945;52.036;8.614;2022-08-18T12:21:37;26.20;1.00
3860;DHT22;1945;52.036;8.614;2022-08-18T12:24:16;26.10;1.00
3860;DHT22;1945;52.036;8.614;2022-08-18T12:26:45;26.20;99.90
3860;DHT22;1945;52.036;8.614;2022-08-18T12:29:12;26.20;1.00
3860;DHT22;1945;52.036;8.614;2022-08-18T12:31:40;26.20;1.00
3860;DHT22;1945;52.036;8.614;2022-08-18T12:34:07;26.30;1.00
3860;DHT22;1945;52.036;8.614;2022-08-18T12:36:34;26.30;1.00
3860;DHT22;1945;52.036;8.614;2022-08-18T12:39:01;26.30;1.00
3860;DHT22;1945;52.036;8.614;2022-08-18T12:41:28;26.60;1.00
3860;DHT22;1945;52.036;8.614;2022-08-18T12:43:56;26.70;1.00
3860;DHT22;1945;52.036;8.614;2022-08-18T12:46:23;26.70;1.00
3860;DHT22;1945;52.036;8.614;2022-08-18T12:48:50;26.50;99.90
3860;DHT22;1945;52.036;8.614;2022-08-18T12:51:17;26.60;99.90
3860;DHT22;1945;52.036;8.614;2022-08-18T12:53:43;26.70;1.00
3860;DHT22;1945;52.036;8.614;2022-08-18T12:56:17;26.90;99.90
3860;DHT22;1945;52.036;8.614;2022-08-18T12:58:45;27.00;99.90
3860;DHT22;1945;52.036;8.614;2022-08-18T13:01:13;26.80;99.90
3860;DHT22;1945;52.036;8.614;2022-08-18T13:03:39;26.60;99.90
3860;DHT22;1945;52.036;8.614;2022-08-18T13:06:06;26.70;99.90
3860;DHT22;1945;52.036;8.614;2022-08-18T13:08:33;26.80;1.00
3860;DHT22;1945;52.036;8.614;2022-08-18T13:11:00;26.80;99.90
3860;DHT22;1945;52.036;8.614;2022-08-18T13:13:28;26.80;1.00
3860;DHT22;1945;52.036;8.614;2022-08-18T13:15:55;26.50;1.00
3860;DHT22;1945;52.036;8.614;2022-08-18T13:18:23;26.40;1.00
3860;DHT22;1945;52.036;8.614;2022-08-18T13:20:50;26.20;1.00
3860;DHT22;1945;52.036;8.614;2022-08-18T13:23:17;26.40;1.00
3860;DHT22;1945;52.036;8.614;2022-08-18T13:25:44;26.30;1.00
3860;DHT22;1945;52.036;8.614;2022-08-18T13:28:10;26.40;1.00
3860;DHT22;1945;52.036;8.614;2022-08-18T13:30:37;26.50;1.00
3860;DHT22;1945;52.036;8.614;2022-08-18T13:33:04;26.40;1.00
3860;DHT22;1945;52.036;8.614;2022-08-18T13:35:32;26.50;1.00
3860;DHT22;1945;52.036;8.614;2022-08-18T13:37:59;26.60;99.90
3860;DHT22;1945;52.036;8.614;2022-08-18T13:40:26;26.50;99.90
3860;DHT22;1945;52.036;8.614;2022-08-18T13:42:52;26.60;99.90
3860;DHT22;1945;52.036;8.614;2022-08-18T13:45:20;26.70;1.00
3860;DHT22;1945;52.036;8.614;2022-08-18T13:47:48;26.90;99.90
3860;DHT22;1945;52.036;8.614;2022-08-18T13:50:16;26.70;99.90
3860;DHT22;1945;52.036;8.614;2022-08-18T13:52:44;26.80;1.00
3860;DHT22;1945;52.036;8.614;2022-08-18T13:55:13;26.70;99.90
3860;DHT22;1945;52.036;8.614;2022-08-18T13:57:41;26.40;99.90
3860;DHT22;1945;52.036;8.614;2022-08-18T14:00:14;26.50;99.90
3860;DHT22;1945;52.036;8.614;2022-08-18T14:02:42;26.50;99.90
3860;DHT22;1945;52.036;8.614;2022-08-18T14:05:09;26.40;99.90
3860;DHT22;1945;52.036;8.614;2022-08-18T14:07:36;26.30;99.90
3860;DHT22;1945;52.036;8.614;2022-08-18T14:10:05;26.00;1.00
3860;DHT22;1945;52.036;8.614;2022-08-18T14:12:34;26.30;1.00
3860;DHT22;1945;52.036;8.614;2022-08-18T14:15:03;26.10;99.90
3860;DHT22;1945;52.036;8.614;2022-08-18T14:17:32;26.10;99.90
3860;DHT22;1945;52.036;8.614;2022-08-18T14:19:59;26.10;99.90
3860;DHT22;1945;52.036;8.614;2022-08-18T14:22:44;26.00;99.90
3860;DHT22;1945;52.036;8.614;2022-08-18T14:25:29;25.90;99.90
3860;DHT22;1945;52.036;8.614;2022-08-18T14:28:13;26.00;99.90
3860;DHT22;1945;52.036;8.614;2022-08-18T14:30:42;25.90;99.90
3860;DHT22;1945;52.036;8.614;2022-08-18T14:33:08;25.90;99.90
3860;DHT22;1945;52.036;8.614;2022-08-18T14:35:36;25.70;87.30
3860;DHT22;1945;52.036;8.614;2022-08-18T14:38:03;25.90;99.90
3860;DHT22;1945;52.036;8.614;2022-08-18T14:40:35;26.00;1.00
3860;DHT22;1945;52.036;8.614;2022-08-18T14:43:01;25.80;99.90
3860;DHT22;1945;52.036;8.614;2022-08-18T14:45:28;26.00;99.90
3860;DHT22;1945;52.036;8.614;2022-08-18T14:47:56;26.20;99.90
3860;DHT22;1945;52.036;8.614;2022-08-18T14:50:23;25.90;16.70
3860;DHT22;1945;52.036;8.614;2022-08-18T14:52:50;25.90;99.90
3860;DHT22;1945;52.036;8.614;2022-08-18T14:55:18;26.00;94.00
3860;DHT22;1945;52.036;8.614;2022-08-18T14:57:46;26.00;1.00
3860;DHT22;1945;52.036;8.614;2022-08-18T15:00:15;26.10;1.00
3860;DHT22;1945;52.036;8.614;2022-08-18T15:02:45;26.20;1.00
3860;DHT22;1945;52.036;8.614;2022-08-18T15:05:13;26.20;1.00
3860;DHT22;1945;52.036;8.614;2022-08-18T15:07:40;26.20;1.00
3860;DHT22;1945;52.036;8.614;2022-08-18T15:10:11;26.20;1.00
3860;DHT22;1945;52.036;8.614;2022-08-18T15:12:38;26.20;1.00
3860;DHT22;1945;52.036;8.614;2022-08-18T15:15:08;26.40;1.00
3860;DHT22;1945;52.036;8.614;2022-08-18T15:17:37;26.50;1.00
3860;DHT22;1945;52.036;8.614;2022-08-18T15:20:06;26.50;1.00
3860;DHT22;1945;52.036;8.614;2022-08-18T15:22:37;26.60;1.00
3860;DHT22;1945;52.036;8.614;2022-08-18T15:25:27;26.40;99.90
3860;DHT22;1945;52.036;8.614;2022-08-18T15:28:07;26.50;99.90
3860;DHT22;1945;52.036;8.614;2022-08-18T15:30:35;26.00;99.90
3860;DHT22;1945;52.036;8.614;2022-08-18T15:33:03;26.20;1.00
3860;DHT22;1945;52.036;8.614;2022-08-18T15:35:30;26.40;86.20
3860;DHT22;1945;52.036;8.614;2022-08-18T15:37:57;26.40;1.00
3860;DHT22;1945;52.036;8.614;2022-08-18T15:40:26;26.50;1.00
3860;DHT22;1945;52.036;8.614;2022-08-18T15:42:56;26.40;1.00
3860;DHT22;1945;52.036;8.614;2022-08-18T15:45:28;26.50;1.00
3860;DHT22;1945;52.036;8.614;2022-08-18T15:47:57;26.40;1.00
3860;DHT22;1945;52.036;8.614;2022-08-18T15:50:24;26.50;1.00
3860;DHT22;1945;52.036;8.614;2022-08-18T15:52:53;26.50;1.00
3860;DHT22;1945;52.036;8.614;2022-08-18T15:55:22;26.50;1.00
3860;DHT22;1945;52.036;8.614;2022-08-18T15:57:49;26.40;1.00
3860;DHT22;1945;52.036;8.614;2022-08-18T16:00:16;26.40;1.00
3860;DHT22;1945;52.036;8.614;2022-08-18T16:02:47;26.40;1.00
3860;DHT22;1945;52.036;8.614;2022-08-18T16:05:17;26.40;1.00
3860;DHT22;1945;52.036;8.614;2022-08-18T16:07:46;26.50;1.00
3860;DHT22;1945;52.036;8.614;2022-08-18T16:10:15;26.50;1.00
3860;DHT22;1945;52.036;8.614;2022-08-18T16:12:42;26.30;1.00
3860;DHT22;1945;52.036;8.614;2022-08-18T16:15:10;26.30;1.00
3860;DHT22;1945;52.036;8.614;2022-08-18T16:17:37;26.40;62.80
3860;DHT22;1945;52.036;8.614;2022-08-18T16:20:04;26.40;2.60
3860;DHT22;1945;52.036;8.614;2022-08-18T16:22:34;26.30;1.00
3860;DHT22;1945;52.036;8.614;2022-08-18T16:25:02;26.30;1.00
3860;DHT22;1945;52.036;8.614;2022-08-18T16:27:29;26.30;1.00
3860;DHT22;1945;52.036;8.614;2022-08-18T16:29:59;26.30;1.00
3860;DHT22;1945;52.036;8.614;2022-08-18T16:32:26;26.30;95.30
3860;DHT22;1945;52.036;8.614;2022-08-18T16:34:53;26.20;1.00
3860;DHT22;1945;52.036;8.614;2022-08-18T16:37:20;26.30;1.00
3860;DHT22;1945;52.036;8.614;2022-08-18T16:39:48;26.30;1.00
3860;DHT22;1945;52.036;8.614;2022-08-18T16:42:15;26.40;76.70
3860;DHT22;1945;52.036;8.614;2022-08-18T16:44:42;26.10;1.00
3860;DHT22;1945;52.036;8.614;2022-08-18T16:47:10;26.30;1.00
3860;DHT22;1945;52.036;8.614;2022-08-18T16:49:37;26.20;99.90
3860;DHT22;1945;52.036;8.614;2022-08-18T16:52:05;26.20;1.00
3860;DHT22;1945;52.036;8.614;2022-08-18T16:54:31;26.10;1.00
3860;DHT22;1945;52.036;8.614;2022-08-18T16:57:00;26.10;1.00
3860;DHT22;1945;52.036;8.614;2022-08-18T16:59:27;26.10;3.20
3860;DHT22;1945;52.036;8.614;2022-08-18T17:02:11;26.10;1.00